createdAt,value
2018-05-13T00:02:14.561Z,9.00
2018-05-13T00:04:42.775Z,9.10
2018-05-13T00:07:10.229Z,9.30
2018-05-13T00:09:37.730Z,10.70
2018-05-13T00:12:05.209Z,9.90
2018-05-13T00:14:32.661Z,8.57
2018-05-13T00:17:00.120Z,8.97
2018-05-13T00:19:27.572Z,9.47
2018-05-13T00:21:55.032Z,8.80
2018-05-13T00:24:22.548Z,10.50
2018-05-13T00:26:50.781Z,8.57
2018-05-13T00:29:18.327Z,8.77
2018-05-13T00:31:45.712Z,9.03
2018-05-13T00:34:13.196Z,9.03
2018-05-13T00:36:41.440Z,9.50
2018-05-13T00:39:08.902Z,11.43
2018-05-13T00:41:36.361Z,8.70
2018-05-13T00:44:03.832Z,7.63
2018-05-13T00:46:31.277Z,8.00
2018-05-13T00:48:58.772Z,8.77
2018-05-13T00:51:26.216Z,8.50
2018-05-13T00:53:53.668Z,7.77
2018-05-13T00:56:21.125Z,8.87
2018-05-13T00:58:48.578Z,9.20
2018-05-13T01:01:16.028Z,8.00
2018-05-13T01:03:45.004Z,7.97
2018-05-13T01:06:12.507Z,7.97
2018-05-13T01:08:39.991Z,8.20
2018-05-13T01:11:07.448Z,8.00
2018-05-13T01:13:34.920Z,8.23
2018-05-13T01:16:02.367Z,8.00
2018-05-13T01:18:29.823Z,8.50
2018-05-13T01:20:57.282Z,9.90
2018-05-13T01:23:26.690Z,8.80
2018-05-13T01:25:54.148Z,7.70
2018-05-13T01:28:21.621Z,7.40
2018-05-13T01:30:49.083Z,7.50
2018-05-13T01:33:16.553Z,7.57
2018-05-13T01:35:46.639Z,7.13
2018-05-13T01:38:15.755Z,7.87
2018-05-13T01:40:43.217Z,7.77
2018-05-13T01:43:10.667Z,7.20
2018-05-13T01:45:38.146Z,7.23
2018-05-13T01:48:05.611Z,7.57
2018-05-13T01:50:33.111Z,8.63
2018-05-13T01:53:00.624Z,7.60
2018-05-13T01:55:28.063Z,6.50
2018-05-13T01:57:55.528Z,7.43
2018-05-13T02:00:22.976Z,8.27
2018-05-13T02:02:50.447Z,7.33
2018-05-13T02:05:17.887Z,7.87
2018-05-13T02:07:45.369Z,7.30
2018-05-13T02:10:12.804Z,7.63
2018-05-13T02:12:40.259Z,7.83
2018-05-13T02:15:07.708Z,6.63
2018-05-13T02:17:35.222Z,7.10
2018-05-13T02:20:02.624Z,7.00
2018-05-13T02:22:30.092Z,6.40
2018-05-13T02:24:57.552Z,6.70
2018-05-13T02:27:25.020Z,7.20
2018-05-13T02:29:52.476Z,7.53
2018-05-13T02:32:20.725Z,7.10
2018-05-13T02:34:48.192Z,7.20
2018-05-13T02:37:15.652Z,7.23
2018-05-13T02:39:43.109Z,7.33
2018-05-13T02:42:10.650Z,7.77
2018-05-13T02:44:38.100Z,7.20
2018-05-13T02:47:05.564Z,7.63
2018-05-13T02:49:33.021Z,6.93
2018-05-13T02:52:00.480Z,7.27
2018-05-13T02:54:27.939Z,7.53
2018-05-13T02:56:55.400Z,7.40
2018-05-13T02:59:22.867Z,7.90
2018-05-13T03:01:50.333Z,7.87
2018-05-13T03:04:17.784Z,6.60
2018-05-13T03:06:45.262Z,7.73
2018-05-13T03:09:12.751Z,7.27
2018-05-13T03:11:40.987Z,7.10
2018-05-13T03:14:08.439Z,7.73
2018-05-13T03:16:35.999Z,6.60
2018-05-13T03:19:03.479Z,7.07
2018-05-13T03:21:31.687Z,7.10
2018-05-13T03:23:59.172Z,6.97
2018-05-13T03:26:26.644Z,7.33
2018-05-13T03:28:54.115Z,7.93
2018-05-13T03:31:21.600Z,7.80
2018-05-13T03:33:49.065Z,6.80
2018-05-13T03:36:16.519Z,6.80
2018-05-13T03:38:44.743Z,7.17
2018-05-13T03:41:12.193Z,7.27
2018-05-13T03:43:39.660Z,6.97
2018-05-13T03:46:07.104Z,7.80
2018-05-13T03:48:34.560Z,6.93
2018-05-13T03:51:02.015Z,7.10
2018-05-13T03:53:29.471Z,7.27
2018-05-13T03:55:56.933Z,7.03
2018-05-13T03:58:24.407Z,6.83
2018-05-13T04:00:51.870Z,7.80
2018-05-13T04:03:19.320Z,6.80
2018-05-13T04:05:46.786Z,6.47
2018-05-13T04:11:33.974Z,7.13
2018-05-13T04:14:13.240Z,7.43
2018-05-13T04:16:40.707Z,6.97
2018-05-13T04:19:08.172Z,7.30
2018-05-13T04:21:35.611Z,7.27
2018-05-13T04:24:03.083Z,7.97
2018-05-13T04:26:30.536Z,6.80
2018-05-13T04:28:58.012Z,7.03
2018-05-13T04:31:25.501Z,7.33
2018-05-13T04:33:53.716Z,7.10
2018-05-13T04:36:21.176Z,7.07
2018-05-13T04:38:48.631Z,7.60
2018-05-13T04:41:16.098Z,6.50
2018-05-13T04:43:43.539Z,6.97
2018-05-13T04:46:11.033Z,6.57
2018-05-13T04:48:38.480Z,9.20
2018-05-13T04:51:05.936Z,7.00
2018-05-13T04:53:33.383Z,7.97
2018-05-13T04:56:00.840Z,7.60
2018-05-13T04:58:29.073Z,7.07
2018-05-13T05:00:57.292Z,7.43
2018-05-13T05:03:24.750Z,7.33
2018-05-13T05:05:52.207Z,6.97
2018-05-13T05:08:19.667Z,7.93
2018-05-13T05:10:47.129Z,7.63
2018-05-13T05:13:14.580Z,7.20
2018-05-13T05:15:42.036Z,8.00
2018-05-13T05:18:09.479Z,7.73
2018-05-13T05:20:36.940Z,7.70
2018-05-13T05:23:04.420Z,6.97
2018-05-13T05:25:31.887Z,7.53
2018-05-13T05:27:59.404Z,7.43
2018-05-13T05:30:26.784Z,7.17
2018-05-13T05:32:54.223Z,7.17
2018-05-13T05:35:21.695Z,6.43
2018-05-13T05:37:49.143Z,7.67
2018-05-13T05:40:16.611Z,12.40
2018-05-13T05:42:44.071Z,7.27
2018-05-13T05:45:12.297Z,6.83
2018-05-13T05:47:39.744Z,7.20
2018-05-13T05:50:07.212Z,7.80
2018-05-13T05:52:34.654Z,8.10
2018-05-13T05:55:02.887Z,6.57
2018-05-13T05:57:30.339Z,7.90
2018-05-13T05:59:57.800Z,7.90
2018-05-13T06:02:25.259Z,8.00
2018-05-13T06:04:52.720Z,7.00
2018-05-13T06:07:20.164Z,7.20
2018-05-13T06:09:48.515Z,8.57
2018-05-13T06:12:16.058Z,7.80
2018-05-13T06:14:43.433Z,7.63
2018-05-13T06:17:10.896Z,7.50
2018-05-13T06:19:38.430Z,7.23
2018-05-13T06:22:05.820Z,7.50
2018-05-13T06:24:33.263Z,7.43
2018-05-13T06:27:00.729Z,7.80
2018-05-13T06:29:28.176Z,7.00
2018-05-13T06:31:56.475Z,7.73
2018-05-13T06:34:23.851Z,7.37
2018-05-13T06:36:51.351Z,7.70
2018-05-13T06:39:18.831Z,7.90
2018-05-13T06:41:46.288Z,7.60
2018-05-13T06:44:13.744Z,7.90
2018-05-13T06:46:41.197Z,8.10
2018-05-13T06:49:08.640Z,7.80
2018-05-13T06:51:36.099Z,8.07
2018-05-13T06:54:04.323Z,7.87
2018-05-13T06:56:31.764Z,7.80
2018-05-13T06:58:59.232Z,7.37
2018-05-13T07:01:26.691Z,7.80
2018-05-13T07:03:54.148Z,7.27
2018-05-13T07:06:21.611Z,8.00
2018-05-13T07:08:49.079Z,7.87
2018-05-13T07:11:16.576Z,7.80
2018-05-13T07:13:44.808Z,7.57
2018-05-13T07:16:12.260Z,7.53
2018-05-13T07:18:39.727Z,8.53
2018-05-13T07:21:07.188Z,7.37
2018-05-13T07:23:34.640Z,8.33
2018-05-13T07:26:02.091Z,7.50
2018-05-13T07:28:29.546Z,7.30
2018-05-13T07:30:57.004Z,7.00
2018-05-13T07:33:24.471Z,7.90
2018-05-13T07:35:51.916Z,7.77
2018-05-13T07:38:19.376Z,7.37
2018-05-13T07:40:46.840Z,7.90
2018-05-13T07:43:14.293Z,7.40
2018-05-13T07:45:41.748Z,7.77
2018-05-13T07:48:09.206Z,7.90
2018-05-13T07:50:36.647Z,7.80
2018-05-13T07:53:04.108Z,7.87
2018-05-13T07:55:32.321Z,7.90
2018-05-13T07:57:59.807Z,7.90
2018-05-13T08:00:28.015Z,7.10
2018-05-13T08:02:55.479Z,8.00
2018-05-13T08:05:22.941Z,8.07
2018-05-13T08:07:50.394Z,7.23
2018-05-13T08:10:17.853Z,7.17
2018-05-13T08:12:45.300Z,7.43
2018-05-13T08:15:12.764Z,7.23
2018-05-13T08:17:40.975Z,7.90
2018-05-13T08:20:09.259Z,7.60
2018-05-13T08:22:38.216Z,8.17
2018-05-13T08:25:05.667Z,8.17
2018-05-13T08:27:33.129Z,8.43
2018-05-13T08:30:00.572Z,7.80
2018-05-13T08:32:28.807Z,7.40
2018-05-13T08:34:56.264Z,7.87
2018-05-13T08:37:24.495Z,7.70
2018-05-13T08:39:52.099Z,7.47
2018-05-13T08:42:20.347Z,7.57
2018-05-13T08:44:47.871Z,7.17
2018-05-13T08:47:15.345Z,7.23
2018-05-13T08:49:42.822Z,7.50
2018-05-13T08:52:10.414Z,7.13
2018-05-13T08:54:37.877Z,7.77
2018-05-13T08:57:05.337Z,7.03
2018-05-13T08:59:33.578Z,7.30
2018-05-13T09:02:01.185Z,6.90
2018-05-13T09:04:28.681Z,7.27
2018-05-13T09:06:56.136Z,6.57
2018-05-13T09:09:23.604Z,7.70
2018-05-13T09:11:51.064Z,6.70
2018-05-13T09:14:18.517Z,7.10
2018-05-13T09:16:45.963Z,6.80
2018-05-13T09:19:13.490Z,6.67
2018-05-13T09:21:40.937Z,7.23
2018-05-13T09:24:08.391Z,6.83
2018-05-13T09:26:35.919Z,7.27
2018-05-13T09:29:03.296Z,6.70
2018-05-13T09:31:30.756Z,7.03
2018-05-13T09:33:58.984Z,6.53
2018-05-13T09:36:26.433Z,6.63
2018-05-13T09:38:53.887Z,6.57
2018-05-13T09:41:21.356Z,6.67
2018-05-13T09:43:49.580Z,6.77
2018-05-13T09:46:17.795Z,6.70
2018-05-13T09:48:45.261Z,6.37
2018-05-13T09:51:12.737Z,6.70
2018-05-13T09:53:40.969Z,6.27
2018-05-13T09:56:08.416Z,6.80
2018-05-13T09:58:36.639Z,6.37
2018-05-13T10:01:04.101Z,6.30
2018-05-13T10:03:31.555Z,6.37
2018-05-13T10:05:59.015Z,6.13
2018-05-13T10:08:26.510Z,6.70
2018-05-13T10:10:54.733Z,6.13
2018-05-13T10:13:22.187Z,5.93
2018-05-13T10:15:49.644Z,7.07
2018-05-13T10:18:17.100Z,6.17
2018-05-13T10:20:45.312Z,5.90
2018-05-13T10:23:12.775Z,5.97
2018-05-13T10:25:40.234Z,7.80
2018-05-13T10:28:07.693Z,6.57
2018-05-13T10:30:35.147Z,6.60
2018-05-13T10:33:02.611Z,6.30
2018-05-13T10:35:30.063Z,6.53
2018-05-13T10:37:57.523Z,6.47
2018-05-13T10:40:25.016Z,6.63
2018-05-13T10:42:53.254Z,6.10
2018-05-13T10:45:20.715Z,6.33
2018-05-13T10:47:48.155Z,5.80
2018-05-13T10:50:15.604Z,6.60
2018-05-13T10:52:43.057Z,5.60
2018-05-13T10:55:10.524Z,7.23
2018-05-13T10:57:37.983Z,5.10
2018-05-13T11:00:05.593Z,4.27
2018-05-13T11:02:33.975Z,4.23
2018-05-13T11:05:01.440Z,3.93
2018-05-13T11:07:28.971Z,3.47
2018-05-13T11:09:57.203Z,3.30
2018-05-13T11:12:24.651Z,3.43
2018-05-13T11:14:52.103Z,3.47
2018-05-13T11:17:19.555Z,3.03
2018-05-13T11:19:46.999Z,3.23
2018-05-13T11:22:15.215Z,2.70
2018-05-13T11:24:42.688Z,2.70
2018-05-13T11:27:10.151Z,2.40
2018-05-13T11:29:37.604Z,2.62
2018-05-13T11:32:05.064Z,2.43
2018-05-13T11:34:34.031Z,2.78
2018-05-13T11:37:01.480Z,2.47
2018-05-13T11:39:28.943Z,2.55
2018-05-13T11:41:56.384Z,2.80
2018-05-13T11:44:23.844Z,2.10
2018-05-13T11:46:51.300Z,1.80
2018-05-13T11:49:19.532Z,1.75
2018-05-13T11:51:47.759Z,1.87
2018-05-13T11:54:15.235Z,1.85
2018-05-13T11:56:43.558Z,1.62
2018-05-13T11:59:11.038Z,2.00
2018-05-13T12:01:38.495Z,1.90
2018-05-13T12:04:05.957Z,2.58
2018-05-13T12:06:33.436Z,2.78
2018-05-13T12:09:00.895Z,3.75
2018-05-13T12:11:28.339Z,2.58
2018-05-13T12:13:55.798Z,3.20
2018-05-13T12:16:25.179Z,2.40
2018-05-13T12:18:53.405Z,2.35
2018-05-13T12:21:20.866Z,2.45
2018-05-13T12:23:48.418Z,2.10
2018-05-13T12:26:15.884Z,2.20
2018-05-13T12:28:46.495Z,2.37
2018-05-13T12:31:13.939Z,3.07
2018-05-13T12:33:42.960Z,3.53
2018-05-13T12:36:11.994Z,3.70
2018-05-13T12:38:39.479Z,4.50
2018-05-13T12:41:06.937Z,4.53
2018-05-13T12:43:35.084Z,4.40
2018-05-13T12:46:03.300Z,5.40
2018-05-13T12:48:31.557Z,5.07
2018-05-13T12:50:59.020Z,4.67
2018-05-13T12:53:26.466Z,5.63
2018-05-13T12:55:53.924Z,5.43
2018-05-13T12:58:21.374Z,5.67
2018-05-13T13:00:48.832Z,5.37
2018-05-13T13:03:16.285Z,5.77
2018-05-13T13:05:43.744Z,6.23
2018-05-13T13:08:11.191Z,5.87
2018-05-13T13:10:39.456Z,7.03
2018-05-13T13:13:06.911Z,6.50
2018-05-13T13:15:35.128Z,5.93
2018-05-13T13:18:02.576Z,6.17
2018-05-13T13:20:30.031Z,6.10
2018-05-13T13:22:57.475Z,6.10
2018-05-13T13:25:25.700Z,6.43
2018-05-13T13:27:53.152Z,6.57
2018-05-13T13:30:20.604Z,5.93
2018-05-13T13:32:48.057Z,6.20
2018-05-13T13:35:15.512Z,6.10
2018-05-13T13:37:42.972Z,6.90
2018-05-13T13:40:10.435Z,6.70
2018-05-13T13:42:37.884Z,6.97
2018-05-13T13:45:05.344Z,10.67
2018-05-13T13:47:32.804Z,10.63
2018-05-13T13:50:02.177Z,8.37
2018-05-13T13:52:29.631Z,10.13
2018-05-13T13:54:57.864Z,9.90
2018-05-13T13:57:25.312Z,8.20
2018-05-13T13:59:52.773Z,8.93
2018-05-13T14:02:20.280Z,7.87
2018-05-13T14:04:48.508Z,7.47
2018-05-13T14:07:15.980Z,8.90
2018-05-13T14:09:43.444Z,9.63
2018-05-13T14:12:10.927Z,8.07
2018-05-13T14:14:39.151Z,9.30
2018-05-13T14:17:06.683Z,14.90
2018-05-13T14:19:35.721Z,10.77
2018-05-13T14:22:03.188Z,13.53
2018-05-13T14:24:30.643Z,11.00
2018-05-13T14:26:58.149Z,8.90
2018-05-13T14:29:25.560Z,8.83
2018-05-13T14:31:53.031Z,10.17
2018-05-13T14:34:21.268Z,9.37
2018-05-13T14:36:48.728Z,10.60
2018-05-13T14:39:16.181Z,9.60
2018-05-13T14:41:43.736Z,15.43
2018-05-13T14:44:11.136Z,10.10
2018-05-13T14:46:39.379Z,10.57
2018-05-13T14:49:06.858Z,9.17
2018-05-13T14:51:34.352Z,11.60
2018-05-13T14:54:01.803Z,10.53
2018-05-13T14:56:29.315Z,10.67
2018-05-13T14:58:57.536Z,12.30
2018-05-13T15:01:24.993Z,10.33
2018-05-13T15:03:53.232Z,9.67
2018-05-13T15:06:20.714Z,12.30
2018-05-13T15:08:48.937Z,9.60
2018-05-13T15:11:16.404Z,14.33
2018-05-13T15:13:43.889Z,15.97
2018-05-13T15:16:11.335Z,12.07
2018-05-13T15:18:38.776Z,9.63
2018-05-13T15:21:06.231Z,9.27
2018-05-13T15:23:33.689Z,9.80
2018-05-13T15:26:01.148Z,10.13
2018-05-13T15:28:28.604Z,11.20
2018-05-13T15:30:56.079Z,10.50
2018-05-13T15:33:23.532Z,12.00
2018-05-13T15:35:50.999Z,9.57
2018-05-13T15:38:18.452Z,10.50
2018-05-13T15:40:45.915Z,9.50
2018-05-13T15:43:14.545Z,10.43
2018-05-13T15:45:41.931Z,11.80
2018-05-13T15:48:09.388Z,10.97
2018-05-13T15:50:36.868Z,9.13
2018-05-13T15:53:04.367Z,11.60
2018-05-13T15:55:31.831Z,12.13
2018-05-13T15:57:59.275Z,9.93
2018-05-13T16:00:26.740Z,10.83
2018-05-13T16:02:54.204Z,12.37
2018-05-13T16:05:21.658Z,10.27
2018-05-13T16:07:49.112Z,9.90
2018-05-13T16:10:17.340Z,14.03
2018-05-13T16:12:44.804Z,8.97
2018-05-13T16:15:12.260Z,8.70
2018-05-13T16:17:39.745Z,12.13
2018-05-13T16:20:07.972Z,7.90
2018-05-13T16:22:35.432Z,10.20
2018-05-13T16:25:02.899Z,6.57
2018-05-13T16:27:30.356Z,8.00
2018-05-13T16:29:57.835Z,7.30
2018-05-13T16:32:25.272Z,6.87
2018-05-13T16:34:52.718Z,9.37
2018-05-13T16:37:20.176Z,9.10
2018-05-13T16:39:47.625Z,7.30
2018-05-13T16:42:15.096Z,7.33
2018-05-13T16:44:42.556Z,13.67
2018-05-13T16:47:09.999Z,7.83
2018-05-13T16:49:37.460Z,21.13
2018-05-13T16:52:04.916Z,19.93
2018-05-13T16:54:32.377Z,29.57
2018-05-13T16:56:59.888Z,14.00
2018-05-13T16:59:28.128Z,15.33
2018-05-13T17:01:55.591Z,10.47
2018-05-13T17:04:23.048Z,10.47
2018-05-13T17:06:50.527Z,14.07
2018-05-13T17:09:18.004Z,21.77
2018-05-13T17:11:45.479Z,13.47
2018-05-13T17:14:13.701Z,15.57
2018-05-13T17:16:41.190Z,12.97
2018-05-13T17:19:09.426Z,20.77
2018-05-13T17:21:36.898Z,28.30
2018-05-13T17:24:04.344Z,19.03
2018-05-13T17:26:31.815Z,22.30
2018-05-13T17:28:59.299Z,21.10
2018-05-13T17:31:27.552Z,19.97
2018-05-13T17:33:55.034Z,22.37
2018-05-13T17:36:23.252Z,21.17
2018-05-13T17:38:50.723Z,17.63
2018-05-13T17:41:18.222Z,28.17
2018-05-13T17:43:45.644Z,15.20
2018-05-13T17:46:13.121Z,18.37
2018-05-13T17:48:40.577Z,15.83
2018-05-13T17:51:08.858Z,21.07
2018-05-13T17:53:37.090Z,21.13
2018-05-13T17:56:04.549Z,18.60
2018-05-13T17:58:32.035Z,19.13
2018-05-13T18:00:59.503Z,13.43
2018-05-13T18:03:27.023Z,15.53
2018-05-13T18:05:54.481Z,18.00
2018-05-13T18:08:21.964Z,15.20
2018-05-13T18:10:49.439Z,14.70
2018-05-13T18:13:16.905Z,15.17
2018-05-13T18:15:45.148Z,12.73
2018-05-13T18:18:12.635Z,21.40
2018-05-13T18:20:40.085Z,19.90
2018-05-13T18:23:07.548Z,20.27
2018-05-13T18:25:35.025Z,16.00
2018-05-13T18:28:03.263Z,19.33
2018-05-13T18:30:30.738Z,28.27
2018-05-13T18:32:59.005Z,20.13
2018-05-13T18:35:26.467Z,22.47
2018-05-13T18:37:53.940Z,15.80
2018-05-13T18:40:22.174Z,15.47
2018-05-13T18:42:49.656Z,17.13
2018-05-13T18:45:17.117Z,20.33
2018-05-13T18:47:44.611Z,13.47
2018-05-13T18:50:12.154Z,18.77
2018-05-13T18:52:39.556Z,18.90
2018-05-13T18:55:07.059Z,23.03
2018-05-13T18:57:34.522Z,19.77
2018-05-13T19:00:02.792Z,19.10
2018-05-13T19:02:30.348Z,17.27
2018-05-13T19:04:57.820Z,21.10
2018-05-13T19:07:26.078Z,19.87
2018-05-13T19:09:53.591Z,15.27
2018-05-13T19:12:21.114Z,14.23
2018-05-13T19:14:48.519Z,15.00
2018-05-13T19:17:15.979Z,13.73
2018-05-13T19:19:43.428Z,9.30
2018-05-13T19:22:10.884Z,9.63
2018-05-13T19:24:38.336Z,9.43
2018-05-13T19:27:05.797Z,9.40
2018-05-13T19:29:33.257Z,7.97
2018-05-13T19:32:00.779Z,8.60
2018-05-13T19:34:30.954Z,9.60
2018-05-13T19:36:58.393Z,7.20
2018-05-13T19:39:25.868Z,10.33
2018-05-13T19:41:53.347Z,8.50
2018-05-13T19:44:22.315Z,7.60
2018-05-13T19:46:50.539Z,7.80
2018-05-13T19:49:18.013Z,7.70
2018-05-13T19:51:45.455Z,10.20
2018-05-13T19:54:12.976Z,7.83
2018-05-13T19:56:41.132Z,9.93
2018-05-13T19:59:08.587Z,10.70
2018-05-13T20:01:36.044Z,11.00
2018-05-13T20:04:03.507Z,9.77
2018-05-13T20:06:30.966Z,10.60
2018-05-13T20:08:58.513Z,8.70
2018-05-13T20:11:25.893Z,10.10
2018-05-13T20:13:53.344Z,8.97
2018-05-13T20:16:20.823Z,9.63
2018-05-13T20:18:48.284Z,8.90
2018-05-13T20:21:16.579Z,9.37
2018-05-13T20:23:44.056Z,10.20
2018-05-13T20:26:11.512Z,8.47
2018-05-13T20:28:38.987Z,8.57
2018-05-13T20:31:06.444Z,7.00
2018-05-13T20:33:33.989Z,8.47
2018-05-13T20:36:01.497Z,7.60
2018-05-13T20:38:28.903Z,6.97
2018-05-13T20:40:56.381Z,6.97
2018-05-13T20:43:23.839Z,6.90
2018-05-13T20:45:51.303Z,6.93
2018-05-13T20:48:18.764Z,6.50
2018-05-13T20:50:46.236Z,8.23
2018-05-13T20:53:13.688Z,6.73
2018-05-13T20:55:41.148Z,6.40
2018-05-13T20:58:08.607Z,6.00
2018-05-13T21:00:36.080Z,7.13
2018-05-13T21:03:03.549Z,6.23
2018-05-13T21:05:31.008Z,6.57
2018-05-13T21:07:59.240Z,6.47
2018-05-13T21:10:26.716Z,6.50
2018-05-13T21:12:54.176Z,8.53
2018-05-13T21:15:21.632Z,6.43
2018-05-13T21:17:49.095Z,8.43
2018-05-13T21:20:16.557Z,6.67
2018-05-13T21:22:44.055Z,6.50
2018-05-13T21:25:11.512Z,6.23
2018-05-13T21:27:38.967Z,6.03
2018-05-13T21:30:06.532Z,6.20
2018-05-13T21:32:33.896Z,6.23
2018-05-13T21:35:01.348Z,8.80
2018-05-13T21:37:28.788Z,5.90
2018-05-13T21:39:57.016Z,6.43
2018-05-13T21:42:24.516Z,5.47
2018-05-13T21:44:52.754Z,6.00
2018-05-13T21:47:20.208Z,5.70
2018-05-13T21:49:47.680Z,6.57
2018-05-13T21:52:16.203Z,6.33
2018-05-13T21:54:44.436Z,6.33
2018-05-13T21:57:11.876Z,5.50
2018-05-13T21:59:39.360Z,6.00
2018-05-13T22:02:08.212Z,5.93
2018-05-13T22:04:35.682Z,5.77
2018-05-13T22:07:03.136Z,5.63
2018-05-13T22:09:30.603Z,6.20
2018-05-13T22:11:58.064Z,6.17
2018-05-13T22:14:25.597Z,6.10
2018-05-13T22:16:53.949Z,6.27
2018-05-13T22:19:22.175Z,6.57
2018-05-13T22:21:49.636Z,6.27
2018-05-13T22:24:17.087Z,5.90
2018-05-13T22:26:44.583Z,7.60
2018-05-13T22:29:12.028Z,6.70
2018-05-13T22:31:39.484Z,6.97
2018-05-13T22:34:06.939Z,7.03
2018-05-13T22:36:34.430Z,5.87
2018-05-13T22:39:01.845Z,6.00
2018-05-13T22:41:29.308Z,10.90
2018-05-13T22:43:56.747Z,6.03
2018-05-13T22:46:24.204Z,6.67
2018-05-13T22:48:51.675Z,7.40
2018-05-13T22:51:19.131Z,6.13
2018-05-13T22:53:46.579Z,18.93
2018-05-13T22:56:14.036Z,6.83
2018-05-13T22:58:41.485Z,6.50
2018-05-13T23:01:08.934Z,5.90
2018-05-13T23:03:36.413Z,6.40
2018-05-13T23:06:03.867Z,5.90
2018-05-13T23:08:31.320Z,7.00
2018-05-13T23:10:58.779Z,6.43
2018-05-13T23:13:26.232Z,6.00
2018-05-13T23:15:53.695Z,7.03
2018-05-13T23:18:21.140Z,6.60
2018-05-13T23:20:48.684Z,6.20
2018-05-13T23:23:16.133Z,6.80
2018-05-13T23:25:43.588Z,6.67
2018-05-13T23:28:11.032Z,7.47
2018-05-13T23:30:39.257Z,6.50
2018-05-13T23:33:06.700Z,6.23
2018-05-13T23:35:34.161Z,6.50
2018-05-13T23:38:01.617Z,6.47
2018-05-13T23:40:29.076Z,6.60
2018-05-13T23:42:56.532Z,7.20
2018-05-13T23:45:23.989Z,6.13
2018-05-13T23:47:51.450Z,6.37
2018-05-13T23:50:18.911Z,6.80
2018-05-13T23:52:46.372Z,6.20
2018-05-13T23:55:14.927Z,6.50
2018-05-13T23:57:42.376Z,6.73
